createdAt,value
2023-01-17T04:47:34.455Z,498.60
2023-01-17T04:50:01.240Z,498.02
2023-01-17T04:52:27.853Z,495.58
2023-01-17T04:54:54.509Z,493.75
2023-01-17T04:57:21.268Z,498.25
2023-01-17T04:59:47.932Z,498.98
2023-01-17T05:02:15.028Z,493.92
2023-01-17T05:04:41.660Z,490.92
2023-01-17T05:07:08.302Z,495.95
2023-01-17T05:09:34.957Z,490.60
2023-01-17T05:12:01.648Z,493.80
2023-01-17T05:14:28.326Z,493.98
2023-01-17T05:16:58.338Z,489.50
2023-01-17T05:19:26.835Z,493.17
2023-01-17T05:21:53.655Z,491.08
2023-01-17T05:24:20.400Z,486.85
2023-01-17T05:26:54.435Z,483.30
2023-01-17T05:29:21.549Z,482.45
2023-01-17T05:31:48.412Z,473.02
2023-01-17T05:34:15.123Z,475.13
2023-01-17T05:36:41.845Z,478.13
2023-01-17T05:39:08.495Z,472.23
2023-01-17T05:41:35.125Z,471.48
2023-01-17T05:44:01.798Z,473.65
2023-01-17T05:46:28.574Z,462.60
2023-01-17T05:48:55.420Z,464.00
2023-01-17T05:51:22.265Z,467.45
2023-01-17T05:53:48.919Z,466.80
2023-01-17T05:56:15.677Z,465.60
2023-01-17T05:58:42.283Z,467.63
2023-01-17T06:01:08.920Z,462.65
2023-01-17T06:03:35.752Z,462.02
2023-01-17T06:06:02.422Z,471.00
2023-01-17T06:08:29.077Z,461.35
2023-01-17T06:10:58.277Z,475.58
2023-01-17T06:13:24.911Z,467.83
2023-01-17T06:15:51.546Z,468.95
2023-01-17T06:18:18.553Z,455.08
2023-01-17T06:20:45.561Z,449.65
2023-01-17T06:23:14.130Z,447.03
2023-01-17T06:25:46.082Z,454.58
2023-01-17T06:28:15.703Z,454.17
2023-01-17T06:30:43.769Z,452.52
2023-01-17T06:33:11.427Z,457.38
2023-01-17T06:35:40.147Z,463.25
2023-01-17T06:38:07.441Z,464.65
2023-01-17T06:40:34.076Z,471.23
2023-01-17T06:43:02.261Z,467.88
2023-01-17T06:45:29.896Z,464.47
2023-01-17T06:47:58.552Z,470.60
2023-01-17T06:50:25.984Z,466.20
2023-01-17T06:53:03.694Z,468.27
2023-01-17T06:55:33.552Z,465.58
2023-01-17T06:58:02.637Z,474.38
2023-01-17T07:00:30.794Z,471.27
2023-01-17T07:02:57.772Z,468.92
2023-01-17T07:05:24.467Z,469.23
2023-01-17T07:07:51.145Z,475.63
2023-01-17T07:10:17.970Z,475.17
2023-01-17T07:12:44.625Z,478.70
2023-01-17T07:15:11.695Z,487.33
2023-01-17T07:17:38.401Z,482.67
2023-01-17T07:20:05.938Z,490.38
2023-01-17T07:22:32.549Z,490.15
2023-01-17T07:24:59.487Z,481.77
2023-01-17T07:27:27.689Z,475.35
2023-01-17T07:29:54.492Z,486.90
2023-01-17T07:32:21.549Z,488.17
2023-01-17T07:34:48.299Z,494.38
2023-01-17T07:37:15.447Z,496.15
2023-01-17T07:39:42.402Z,495.50
2023-01-17T07:42:09.304Z,490.60
2023-01-17T07:44:36.108Z,496.77
2023-01-17T07:47:04.246Z,490.50
2023-01-17T07:49:30.970Z,494.88
2023-01-17T07:51:57.577Z,500.02
2023-01-17T07:54:24.225Z,497.97
2023-01-17T07:56:50.860Z,501.92
2023-01-17T07:59:18.109Z,506.20
2023-01-17T08:01:44.950Z,508.92
2023-01-17T08:04:11.765Z,505.60
2023-01-17T08:06:41.988Z,513.67
2023-01-17T08:09:08.651Z,507.98
2023-01-17T08:11:35.301Z,506.40
2023-01-17T08:14:01.991Z,515.55
2023-01-17T08:16:29.617Z,513.70
2023-01-17T08:18:57.043Z,514.60
2023-01-17T08:21:24.174Z,517.00
2023-01-17T08:23:52.148Z,516.40
2023-01-17T08:26:23.889Z,514.47
2023-01-17T08:29:00.291Z,505.77
2023-01-17T08:31:29.550Z,510.13
2023-01-17T08:33:57.083Z,511.85
2023-01-17T08:36:25.751Z,515.75
2023-01-17T08:38:53.024Z,516.33
2023-01-17T08:41:20.900Z,518.55
2023-01-17T08:43:52.062Z,522.92
2023-01-17T08:46:19.491Z,524.20
2023-01-17T08:48:46.507Z,526.83
2023-01-17T08:51:13.503Z,519.35
2023-01-17T08:53:40.714Z,501.88
2023-01-17T08:56:07.725Z,509.80
2023-01-17T08:58:35.795Z,510.00
2023-01-17T09:01:04.178Z,508.42
2023-01-17T09:03:32.128Z,505.98
2023-01-17T09:06:09.648Z,507.55
2023-01-17T09:08:36.977Z,514.35
2023-01-17T09:11:08.824Z,524.13
2023-01-17T09:13:35.761Z,536.63
2023-01-17T09:16:02.872Z,547.88
2023-01-17T09:18:30.804Z,547.90
2023-01-17T09:20:59.225Z,560.25
2023-01-17T09:23:28.369Z,580.05
2023-01-17T09:25:57.427Z,582.83
2023-01-17T09:28:28.302Z,596.50
2023-01-17T09:30:55.034Z,606.20
2023-01-17T09:33:24.343Z,598.47
2023-01-17T09:35:51.037Z,594.88
2023-01-17T09:38:17.682Z,596.55
2023-01-17T09:40:47.446Z,599.70
2023-01-17T09:43:36.426Z,601.28
2023-01-17T09:46:03.628Z,609.33
2023-01-17T09:48:39.785Z,614.85
2023-01-17T09:51:22.273Z,617.53
2023-01-17T09:53:49.068Z,611.70
2023-01-17T09:56:29.462Z,620.47
2023-01-17T09:59:33.184Z,624.40
2023-01-17T10:02:30.428Z,620.05
2023-01-17T10:05:18.131Z,631.05
2023-01-17T10:08:04.476Z,629.58
2023-01-17T10:10:42.520Z,635.17
2023-01-17T10:13:36.800Z,639.90
2023-01-17T10:16:28.081Z,626.10
2023-01-17T10:19:29.791Z,634.50
2023-01-17T10:22:21.076Z,629.83
2023-01-17T10:25:07.855Z,630.13
2023-01-17T10:27:40.176Z,629.00
2023-01-17T10:30:32.364Z,636.15
2023-01-17T10:33:01.255Z,623.80
2023-01-17T10:35:33.514Z,628.80
2023-01-17T10:38:05.585Z,631.05
2023-01-17T10:40:40.872Z,624.75
2023-01-17T10:43:32.421Z,628.17
2023-01-17T10:45:59.100Z,625.57
2023-01-17T10:48:42.254Z,625.90
2023-01-17T10:51:34.838Z,638.33
2023-01-17T10:54:16.862Z,627.10
2023-01-17T10:56:43.479Z,632.40
2023-01-17T10:59:26.230Z,628.15
2023-01-17T11:01:52.962Z,626.72
2023-01-17T11:04:30.805Z,633.33
2023-01-17T11:07:25.291Z,628.67
2023-01-17T11:09:54.555Z,636.60
2023-01-17T11:12:32.388Z,633.15
2023-01-17T11:15:04.925Z,636.92
2023-01-17T11:17:32.920Z,643.40
2023-01-17T11:20:24.206Z,651.03
2023-01-17T11:23:23.895Z,644.30
2023-01-17T11:25:56.929Z,649.60
2023-01-17T11:28:30.566Z,647.67
2023-01-17T11:31:28.159Z,644.13
2023-01-17T11:34:13.249Z,642.63
2023-01-17T11:36:39.941Z,648.20
2023-01-17T11:39:25.846Z,649.83
2023-01-17T11:41:52.757Z,647.65
2023-01-17T11:44:25.688Z,647.67
2023-01-17T11:47:11.367Z,652.28
2023-01-17T11:49:39.679Z,658.22
2023-01-17T11:52:10.350Z,655.17
2023-01-17T11:54:40.233Z,652.30
2023-01-17T11:57:17.975Z,656.00
2023-01-17T11:59:45.722Z,657.88
2023-01-17T12:02:39.629Z,654.55
2023-01-17T12:05:18.311Z,653.45
2023-01-17T12:08:03.636Z,652.33
2023-01-17T12:10:56.581Z,650.05
2023-01-17T12:14:02.367Z,651.15
2023-01-17T12:16:47.732Z,652.58
2023-01-17T12:19:27.193Z,646.20
2023-01-17T12:22:18.178Z,651.85
2023-01-17T12:25:11.179Z,655.40
2023-01-17T12:28:13.943Z,648.30
2023-01-17T12:31:01.340Z,658.13
2023-01-17T12:33:49.310Z,655.15
2023-01-17T12:36:22.043Z,652.17
2023-01-17T12:38:49.075Z,652.17
2023-01-17T12:41:24.278Z,647.15
2023-01-17T12:43:55.488Z,646.80
2023-01-17T12:46:40.632Z,642.50
2023-01-17T12:49:36.104Z,648.95
2023-01-17T12:52:10.655Z,641.83
2023-01-17T12:54:42.486Z,647.83
2023-01-17T12:57:18.432Z,645.95
2023-01-17T12:59:52.649Z,635.67
2023-01-17T13:02:36.016Z,644.67
2023-01-17T13:05:23.733Z,633.80
2023-01-17T13:08:11.825Z,637.72
2023-01-17T13:10:47.709Z,641.20
2023-01-17T13:13:20.042Z,638.72
2023-01-17T13:15:49.575Z,636.30
2023-01-17T13:18:22.961Z,634.45
2023-01-17T13:20:56.079Z,628.42
2023-01-17T13:23:28.714Z,640.90
2023-01-17T13:25:57.831Z,626.55
2023-01-17T13:28:44.663Z,638.20
2023-01-17T13:31:21.016Z,639.78
2023-01-17T13:34:17.532Z,639.90
2023-01-17T13:37:32.516Z,637.10
2023-01-17T13:40:21.057Z,630.28
2023-01-17T13:42:55.516Z,626.75
2023-01-17T13:45:28.108Z,632.20
2023-01-17T13:48:13.086Z,625.58
2023-01-17T13:50:56.299Z,630.72
2023-01-17T13:53:29.032Z,626.95
2023-01-17T13:56:18.760Z,629.05
2023-01-17T13:58:50.078Z,627.25
2023-01-17T14:01:23.009Z,627.60
2023-01-17T14:03:52.877Z,623.75
2023-01-17T14:06:35.181Z,625.67
2023-01-17T14:09:07.949Z,615.22
2023-01-17T14:11:37.030Z,621.37
2023-01-17T14:14:37.574Z,624.58
2023-01-17T14:17:16.651Z,621.03
2023-01-17T14:19:47.904Z,626.30
2023-01-17T14:22:23.942Z,629.47
2023-01-17T14:25:17.572Z,631.30
2023-01-17T14:27:56.777Z,629.67
2023-01-17T14:30:28.397Z,639.27
2023-01-17T14:33:19.824Z,633.92
2023-01-17T14:35:54.172Z,639.05
2023-01-17T14:38:23.771Z,623.67
2023-01-17T14:40:57.607Z,624.60
2023-01-17T14:43:28.107Z,631.80
2023-01-17T14:46:04.141Z,620.88
2023-01-17T14:48:31.259Z,620.72
2023-01-17T14:51:01.827Z,622.15
2023-01-17T14:53:30.648Z,616.85
2023-01-17T14:56:03.044Z,608.83
2023-01-17T14:58:36.262Z,608.83
2023-01-17T15:01:29.005Z,609.97
2023-01-17T15:03:56.854Z,605.17
2023-01-17T15:06:39.065Z,598.97
2023-01-17T15:09:16.296Z,590.08
2023-01-17T15:11:44.648Z,590.17
2023-01-17T15:14:20.408Z,587.65
2023-01-17T15:16:47.161Z,591.00
2023-01-17T15:19:14.842Z,586.15
2023-01-17T15:21:44.072Z,590.25
2023-01-17T15:24:20.347Z,583.45
2023-01-17T15:26:47.534Z,591.58
2023-01-17T15:29:23.188Z,583.15
2023-01-17T15:31:54.368Z,581.90
2023-01-17T15:34:31.971Z,576.33
2023-01-17T15:37:26.387Z,582.58
2023-01-17T15:40:16.685Z,577.35
2023-01-17T15:42:45.370Z,576.65
2023-01-17T15:45:17.066Z,578.10
2023-01-17T15:47:43.861Z,570.25
2023-01-17T15:50:27.542Z,554.70
2023-01-17T15:52:55.842Z,573.20
2023-01-17T15:55:28.760Z,555.38
2023-01-17T15:57:55.561Z,548.50
2023-01-17T16:00:37.676Z,543.53
2023-01-17T16:03:24.733Z,538.58
2023-01-17T16:05:53.821Z,536.15
2023-01-17T16:08:25.104Z,524.72
2023-01-17T16:10:58.991Z,511.37
2023-01-17T16:13:25.674Z,513.45
2023-01-17T16:15:52.581Z,510.75
2023-01-17T16:18:23.889Z,512.47
2023-01-17T16:21:00.325Z,504.10
2023-01-17T16:23:28.107Z,522.13
2023-01-17T16:25:54.755Z,514.67
2023-01-17T16:28:21.459Z,514.58
2023-01-17T16:30:48.817Z,518.83
2023-01-17T16:33:15.754Z,515.65
2023-01-17T16:35:42.976Z,520.10
2023-01-17T16:38:15.555Z,517.97
2023-01-17T16:40:44.399Z,523.73
2023-01-17T16:43:12.272Z,524.95
2023-01-17T16:45:44.075Z,527.73
2023-01-17T16:48:13.821Z,523.13
2023-01-17T16:50:42.245Z,523.58
2023-01-17T16:53:08.917Z,529.33
2023-01-17T16:55:35.576Z,533.03
2023-01-17T16:58:02.169Z,535.45
2023-01-17T17:00:28.796Z,546.42
2023-01-17T17:02:55.491Z,548.83
2023-01-17T17:05:22.088Z,550.88
2023-01-17T17:07:51.643Z,547.45
2023-01-17T17:10:19.969Z,551.78
2023-01-17T17:12:46.946Z,549.08
2023-01-17T17:15:13.944Z,546.20
2023-01-17T17:17:42.935Z,549.55
2023-01-17T17:20:12.320Z,552.10
2023-01-17T17:22:40.407Z,553.78
2023-01-17T17:25:07.323Z,547.50
2023-01-17T17:27:33.973Z,547.63
2023-01-17T17:30:00.632Z,547.00
2023-01-17T17:32:28.059Z,555.13
2023-01-17T17:34:54.782Z,555.83
2023-01-17T17:37:23.481Z,554.45
2023-01-17T17:39:50.245Z,558.72
2023-01-17T17:42:17.235Z,551.15
2023-01-17T17:44:43.886Z,555.45
2023-01-17T17:47:12.751Z,548.15
2023-01-17T17:49:39.735Z,551.47
2023-01-17T17:52:07.493Z,547.78
2023-01-17T17:54:34.698Z,545.58
2023-01-17T17:57:01.542Z,543.30
2023-01-17T17:59:28.240Z,548.33
2023-01-17T18:01:54.887Z,542.65
2023-01-17T18:04:21.999Z,548.60
2023-01-17T18:06:48.679Z,545.78
2023-01-17T18:09:15.579Z,547.08
2023-01-17T18:11:43.236Z,553.08
2023-01-17T18:14:13.891Z,544.10
2023-01-17T18:16:43.413Z,542.72
2023-01-17T18:19:23.203Z,539.27
2023-01-17T18:21:51.234Z,547.60
2023-01-17T18:24:20.478Z,547.83
2023-01-17T18:26:49.967Z,548.40
2023-01-17T18:29:17.847Z,545.33
2023-01-17T18:31:45.956Z,549.50
2023-01-17T18:34:18.143Z,551.40
2023-01-17T18:36:45.307Z,554.55
2023-01-17T18:39:24.427Z,550.33
2023-01-17T18:41:51.569Z,552.53
2023-01-17T18:44:21.846Z,551.78
2023-01-17T18:46:50.111Z,548.35
2023-01-17T18:49:18.989Z,551.97
2023-01-17T18:51:49.083Z,550.00
2023-01-17T18:54:16.530Z,551.53
2023-01-17T18:56:43.170Z,551.22
2023-01-17T18:59:12.775Z,547.95
2023-01-17T19:01:43.501Z,555.90
2023-01-17T19:04:12.446Z,554.92
2023-01-17T19:06:41.771Z,553.00
2023-01-17T19:09:10.649Z,554.05
2023-01-17T19:11:38.011Z,553.30
2023-01-17T19:14:05.764Z,547.58
2023-01-17T19:16:36.115Z,549.30
2023-01-17T19:19:05.450Z,550.78
2023-01-17T19:21:32.236Z,553.33
2023-01-17T19:23:59.439Z,546.63
2023-01-17T19:26:27.394Z,543.78
2023-01-17T19:28:56.504Z,539.58
2023-01-17T19:31:28.689Z,539.53
2023-01-17T19:33:57.401Z,540.50
2023-01-17T19:36:33.634Z,536.05
2023-01-17T19:39:05.601Z,539.97
2023-01-17T19:41:34.698Z,540.67
2023-01-17T19:44:03.662Z,534.53
2023-01-17T19:46:30.555Z,539.17
2023-01-17T19:48:58.026Z,531.33
2023-01-17T19:51:26.684Z,530.92
2023-01-17T19:53:56.506Z,525.28
2023-01-17T19:56:25.186Z,524.47
2023-01-17T19:58:52.318Z,517.58
2023-01-17T20:01:25.120Z,510.10
2023-01-17T20:03:52.699Z,505.92
2023-01-17T20:06:22.387Z,509.02
2023-01-17T20:08:49.210Z,507.88
2023-01-17T20:11:19.186Z,514.25
2023-01-17T20:13:53.261Z,507.75
2023-01-17T20:16:21.329Z,507.15
2023-01-17T20:18:48.091Z,504.67
2023-01-17T20:21:21.394Z,506.52
2023-01-17T20:23:49.967Z,500.20
2023-01-17T20:26:22.105Z,499.25
2023-01-17T20:28:51.273Z,496.85
2023-01-17T20:31:21.471Z,500.13
2023-01-17T20:33:52.192Z,510.93
2023-01-17T20:36:21.576Z,507.48
2023-01-17T20:38:48.947Z,501.13
2023-01-17T20:41:22.797Z,497.23
2023-01-17T20:43:52.383Z,503.23
2023-01-17T20:46:20.995Z,507.83
2023-01-17T20:48:53.558Z,500.15
2023-01-17T20:51:21.584Z,502.75
2023-01-17T20:53:59.147Z,515.65
2023-01-17T20:56:26.643Z,517.22
2023-01-17T20:58:54.435Z,521.00
2023-01-17T21:01:21.912Z,520.35
2023-01-17T21:03:51.484Z,521.65
2023-01-17T21:06:19.316Z,529.17
2023-01-17T21:08:47.117Z,530.45
2023-01-17T21:11:19.057Z,533.53
2023-01-17T21:13:48.481Z,528.93
2023-01-17T21:16:16.727Z,528.43
2023-01-17T21:18:47.466Z,531.40
2023-01-17T21:21:17.605Z,532.75
2023-01-17T21:23:45.726Z,534.85
2023-01-17T21:26:14.753Z,533.30
2023-01-17T21:28:43.480Z,534.30
2023-01-17T21:31:23.268Z,531.78
2023-01-17T21:33:58.689Z,533.17
2023-01-17T21:36:28.275Z,536.97
2023-01-17T21:38:57.321Z,534.60
2023-01-17T21:41:30.010Z,543.13
2023-01-17T21:43:58.993Z,546.60
2023-01-17T21:46:27.449Z,545.58
2023-01-17T21:48:54.204Z,549.90
2023-01-17T21:51:21.760Z,547.53
2023-01-17T21:53:48.525Z,546.40
2023-01-17T21:56:50.677Z,545.17
2023-01-17T21:59:17.341Z,543.00
2023-01-17T22:01:44.109Z,537.22
2023-01-17T22:04:12.556Z,539.80
2023-01-17T22:06:39.292Z,536.28
2023-01-17T22:09:08.243Z,530.97
2023-01-17T22:11:36.444Z,538.15
2023-01-17T22:14:05.960Z,526.60
2023-01-17T22:16:32.735Z,524.05
2023-01-17T22:18:59.356Z,526.47
2023-01-17T22:21:28.345Z,515.58
2023-01-17T22:23:57.488Z,529.53
2023-01-17T22:26:26.621Z,523.33
2023-01-17T22:28:53.805Z,525.30
2023-01-17T22:31:26.896Z,528.22
2023-01-17T22:33:56.067Z,533.17
2023-01-17T22:36:23.492Z,518.43
2023-01-17T22:38:50.536Z,513.67
2023-01-17T22:41:32.844Z,515.10
2023-01-17T22:44:02.100Z,513.20
2023-01-17T22:46:31.439Z,509.23
2023-01-17T22:48:58.455Z,516.95
2023-01-17T22:51:27.271Z,527.00
2023-01-17T22:53:56.467Z,517.28
2023-01-17T22:56:26.440Z,509.98
2023-01-17T22:58:53.500Z,508.83
2023-01-17T23:01:31.543Z,529.55
2023-01-17T23:04:00.757Z,510.42
2023-01-17T23:06:35.521Z,506.63
2023-01-17T23:09:05.076Z,503.60
2023-01-17T23:11:49.651Z,519.33
2023-01-17T23:14:22.158Z,521.53
2023-01-17T23:17:08.733Z,524.97
2023-01-17T23:19:43.189Z,525.05
2023-01-17T23:22:21.326Z,539.33
2023-01-17T23:24:59.632Z,531.78
2023-01-17T23:27:52.245Z,537.10
2023-01-17T23:30:24.961Z,538.95
2023-01-17T23:32:54.607Z,541.42
2023-01-17T23:35:25.879Z,529.22
2023-01-17T23:38:11.335Z,510.13
2023-01-17T23:40:38.930Z,527.92
2023-01-17T23:43:24.276Z,512.65
2023-01-17T23:45:52.991Z,518.45
2023-01-17T23:48:24.675Z,510.45
2023-01-17T23:50:56.277Z,505.02
2023-01-17T23:53:22.953Z,507.73
2023-01-17T23:55:51.724Z,503.13
2023-01-17T23:58:19.332Z,506.48
